sensor_id;sensor_type;location;lat;lon;timestamp;P1;durP1;ratioP1;P2;durP2;ratioP2
30048;SDS011;16879;50.852;15.602;2024-02-04T00:00:43;3.33;;;3.03;;
30048;SDS011;16879;50.852;15.602;2024-02-04T00:03:09;2.92;;;2.60;;
30048;SDS011;16879;50.852;15.602;2024-02-04T00:05:35;3.83;;;3.08;;
30048;SDS011;16879;50.852;15.602;2024-02-04T00:08:02;3.03;;;2.50;;
30048;SDS011;16879;50.852;15.602;2024-02-04T00:10:28;2.45;;;2.15;;
30048;SDS011;16879;50.852;15.602;2024-02-04T00:12:54;2.05;;;1.70;;
30048;SDS011;16879;50.852;15.602;2024-02-04T00:15:20;2.45;;;2.20;;
30048;SDS011;16879;50.852;15.602;2024-02-04T00:17:45;1.92;;;1.75;;
30048;SDS011;16879;50.852;15.602;2024-02-04T00:20:11;4.10;;;1.98;;
30048;SDS011;16879;50.852;15.602;2024-02-04T00:22:37;2.55;;;1.67;;
30048;SDS011;16879;50.852;15.602;2024-02-04T00:25:03;3.38;;;2.60;;
30048;SDS011;16879;50.852;15.602;2024-02-04T00:27:36;1.37;;;1.27;;
30048;SDS011;16879;50.852;15.602;2024-02-04T00:30:02;2.67;;;2.03;;
30048;SDS011;16879;50.852;15.602;2024-02-04T00:32:29;3.30;;;1.52;;
30048;SDS011;16879;50.852;15.602;2024-02-04T00:34:55;1.30;;;1.20;;
30048;SDS011;16879;50.852;15.602;2024-02-04T00:37:21;1.65;;;1.10;;
30048;SDS011;16879;50.852;15.602;2024-02-04T00:39:47;3.45;;;1.55;;
30048;SDS011;16879;50.852;15.602;2024-02-04T00:42:13;2.50;;;1.23;;
30048;SDS011;16879;50.852;15.602;2024-02-04T00:44:39;6.93;;;1.10;;
30048;SDS011;16879;50.852;15.602;2024-02-04T00:47:05;1.58;;;1.20;;
30048;SDS011;16879;50.852;15.602;2024-02-04T00:49:31;1.50;;;1.40;;
30048;SDS011;16879;50.852;15.602;2024-02-04T00:51:57;0.80;;;0.80;;
30048;SDS011;16879;50.852;15.602;2024-02-04T00:54:23;2.00;;;1.20;;
30048;SDS011;16879;50.852;15.602;2024-02-04T00:56:49;1.92;;;1.30;;
30048;SDS011;16879;50.852;15.602;2024-02-04T00:59:15;1.30;;;0.95;;
30048;SDS011;16879;50.852;15.602;2024-02-04T01:01:41;1.50;;;0.90;;
30048;SDS011;16879;50.852;15.602;2024-02-04T01:04:08;1.58;;;1.48;;
30048;SDS011;16879;50.852;15.602;2024-02-04T01:06:33;2.55;;;1.08;;
30048;SDS011;16879;50.852;15.602;2024-02-04T01:08:59;3.10;;;1.60;;
30048;SDS011;16879;50.852;15.602;2024-02-04T01:11:26;3.00;;;1.10;;
30048;SDS011;16879;50.852;15.602;2024-02-04T01:13:52;2.30;;;1.65;;
30048;SDS011;16879;50.852;15.602;2024-02-04T01:16:19;1.77;;;1.25;;
30048;SDS011;16879;50.852;15.602;2024-02-04T01:18:45;2.38;;;1.20;;
30048;SDS011;16879;50.852;15.602;2024-02-04T01:21:11;1.80;;;1.40;;
30048;SDS011;16879;50.852;15.602;2024-02-04T01:23:37;1.70;;;1.60;;
30048;SDS011;16879;50.852;15.602;2024-02-04T01:26:03;4.28;;;1.77;;
30048;SDS011;16879;50.852;15.602;2024-02-04T01:28:29;4.03;;;2.25;;
30048;SDS011;16879;50.852;15.602;2024-02-04T01:30:55;5.05;;;2.83;;
30048;SDS011;16879;50.852;15.602;2024-02-04T01:33:21;3.88;;;3.10;;
30048;SDS011;16879;50.852;15.602;2024-02-04T01:35:47;3.03;;;2.30;;
30048;SDS011;16879;50.852;15.602;2024-02-04T01:38:13;4.38;;;2.92;;
30048;SDS011;16879;50.852;15.602;2024-02-04T01:40:39;2.10;;;1.83;;
30048;SDS011;16879;50.852;15.602;2024-02-04T01:43:05;4.78;;;3.40;;
30048;SDS011;16879;50.852;15.602;2024-02-04T01:45:31;5.30;;;4.00;;
30048;SDS011;16879;50.852;15.602;2024-02-04T01:47:57;4.40;;;3.60;;
30048;SDS011;16879;50.852;15.602;2024-02-04T01:50:23;5.20;;;3.65;;
30048;SDS011;16879;50.852;15.602;2024-02-04T01:52:49;4.70;;;3.63;;
30048;SDS011;16879;50.852;15.602;2024-02-04T01:55:17;3.45;;;3.00;;
30048;SDS011;16879;50.852;15.602;2024-02-04T01:57:44;4.53;;;3.40;;
30048;SDS011;16879;50.852;15.602;2024-02-04T02:00:09;3.05;;;2.83;;
30048;SDS011;16879;50.852;15.602;2024-02-04T02:02:40;2.65;;;2.45;;
30048;SDS011;16879;50.852;15.602;2024-02-04T02:05:07;4.00;;;3.65;;
30048;SDS011;16879;50.852;15.602;2024-02-04T02:07:34;3.20;;;2.90;;
30048;SDS011;16879;50.852;15.602;2024-02-04T02:10:00;3.10;;;2.80;;
30048;SDS011;16879;50.852;15.602;2024-02-04T02:12:27;3.20;;;3.00;;
30048;SDS011;16879;50.852;15.602;2024-02-04T02:15:18;3.85;;;2.85;;
30048;SDS011;16879;50.852;15.602;2024-02-04T02:18:02;3.70;;;2.88;;
30048;SDS011;16879;50.852;15.602;2024-02-04T02:20:32;4.40;;;3.72;;
30048;SDS011;16879;50.852;15.602;2024-02-04T02:23:10;3.53;;;3.17;;
30048;SDS011;16879;50.852;15.602;2024-02-04T02:25:36;3.35;;;2.70;;
30048;SDS011;16879;50.852;15.602;2024-02-04T02:28:03;2.47;;;2.08;;
30048;SDS011;16879;50.852;15.602;2024-02-04T02:30:29;3.92;;;1.95;;
30048;SDS011;16879;50.852;15.602;2024-02-04T02:32:55;3.72;;;2.53;;
30048;SDS011;16879;50.852;15.602;2024-02-04T02:35:22;3.20;;;2.33;;
30048;SDS011;16879;50.852;15.602;2024-02-04T02:37:56;2.55;;;2.13;;
30048;SDS011;16879;50.852;15.602;2024-02-04T02:43:13;3.38;;;2.15;;
30048;SDS011;16879;50.852;15.602;2024-02-04T02:45:41;4.00;;;2.25;;
30048;SDS011;16879;50.852;15.602;2024-02-04T02:48:08;2.00;;;1.90;;
30048;SDS011;16879;50.852;15.602;2024-02-04T02:50:35;4.32;;;2.47;;
30048;SDS011;16879;50.852;15.602;2024-02-04T02:53:01;2.95;;;2.13;;
30048;SDS011;16879;50.852;15.602;2024-02-04T02:55:27;4.15;;;2.15;;
30048;SDS011;16879;50.852;15.602;2024-02-04T02:57:53;7.80;;;2.47;;
30048;SDS011;16879;50.852;15.602;2024-02-04T03:00:19;2.65;;;2.25;;
30048;SDS011;16879;50.852;15.602;2024-02-04T03:02:45;4.10;;;1.90;;
30048;SDS011;16879;50.852;15.602;2024-02-04T03:05:11;2.30;;;2.10;;
30048;SDS011;16879;50.852;15.602;2024-02-04T03:07:37;2.85;;;2.25;;
30048;SDS011;16879;50.852;15.602;2024-02-04T03:10:03;2.35;;;2.17;;
30048;SDS011;16879;50.852;15.602;2024-02-04T03:12:29;2.05;;;1.80;;
30048;SDS011;16879;50.852;15.602;2024-02-04T03:14:55;3.22;;;1.88;;
30048;SDS011;16879;50.852;15.602;2024-02-04T03:17:21;2.25;;;2.05;;
30048;SDS011;16879;50.852;15.602;2024-02-04T03:19:47;2.85;;;2.30;;
30048;SDS011;16879;50.852;15.602;2024-02-04T03:22:14;4.00;;;2.58;;
30048;SDS011;16879;50.852;15.602;2024-02-04T03:24:40;2.42;;;2.22;;
30048;SDS011;16879;50.852;15.602;2024-02-04T03:27:05;3.72;;;2.70;;
30048;SDS011;16879;50.852;15.602;2024-02-04T03:29:31;7.45;;;2.47;;
30048;SDS011;16879;50.852;15.602;2024-02-04T03:31:57;3.38;;;2.40;;
30048;SDS011;16879;50.852;15.602;2024-02-04T03:34:23;5.10;;;2.85;;
30048;SDS011;16879;50.852;15.602;2024-02-04T03:36:49;3.03;;;2.22;;
30048;SDS011;16879;50.852;15.602;2024-02-04T03:39:15;3.35;;;2.88;;
30048;SDS011;16879;50.852;15.602;2024-02-04T03:41:41;3.65;;;2.72;;
30048;SDS011;16879;50.852;15.602;2024-02-04T03:44:07;3.47;;;3.17;;
30048;SDS011;16879;50.852;15.602;2024-02-04T03:46:33;3.60;;;2.50;;
30048;SDS011;16879;50.852;15.602;2024-02-04T03:48:59;6.97;;;3.30;;
30048;SDS011;16879;50.852;15.602;2024-02-04T03:51:25;6.50;;;3.20;;
30048;SDS011;16879;50.852;15.602;2024-02-04T03:53:51;4.80;;;2.92;;
30048;SDS011;16879;50.852;15.602;2024-02-04T03:56:17;2.60;;;2.38;;
30048;SDS011;16879;50.852;15.602;2024-02-04T03:58:43;4.03;;;3.13;;
30048;SDS011;16879;50.852;15.602;2024-02-04T04:01:10;4.10;;;3.00;;
30048;SDS011;16879;50.852;15.602;2024-02-04T04:03:38;4.88;;;2.50;;
30048;SDS011;16879;50.852;15.602;2024-02-04T04:06:05;3.92;;;2.75;;
30048;SDS011;16879;50.852;15.602;2024-02-04T04:08:31;3.00;;;2.38;;
30048;SDS011;16879;50.852;15.602;2024-02-04T04:10:58;2.25;;;2.13;;
30048;SDS011;16879;50.852;15.602;2024-02-04T04:13:24;2.42;;;2.22;;
30048;SDS011;16879;50.852;15.602;2024-02-04T04:15:50;3.17;;;1.63;;
30048;SDS011;16879;50.852;15.602;2024-02-04T04:18:17;1.50;;;1.40;;
30048;SDS011;16879;50.852;15.602;2024-02-04T04:20:43;4.32;;;2.00;;
30048;SDS011;16879;50.852;15.602;2024-02-04T04:23:09;2.20;;;2.00;;
30048;SDS011;16879;50.852;15.602;2024-02-04T04:25:35;1.63;;;1.52;;
30048;SDS011;16879;50.852;15.602;2024-02-04T04:28:01;1.95;;;1.85;;
30048;SDS011;16879;50.852;15.602;2024-02-04T04:30:27;1.67;;;1.25;;
30048;SDS011;16879;50.852;15.602;2024-02-04T04:32:53;1.80;;;1.70;;
30048;SDS011;16879;50.852;15.602;2024-02-04T04:35:19;1.42;;;1.33;;
30048;SDS011;16879;50.852;15.602;2024-02-04T04:37:45;3.22;;;1.80;;
30048;SDS011;16879;50.852;15.602;2024-02-04T04:40:11;1.65;;;1.55;;
30048;SDS011;16879;50.852;15.602;2024-02-04T04:42:38;1.40;;;1.40;;
30048;SDS011;16879;50.852;15.602;2024-02-04T04:45:03;1.98;;;1.50;;
30048;SDS011;16879;50.852;15.602;2024-02-04T04:47:29;1.35;;;1.10;;
30048;SDS011;16879;50.852;15.602;2024-02-04T04:49:56;1.13;;;0.90;;
30048;SDS011;16879;50.852;15.602;2024-02-04T04:52:22;1.08;;;0.90;;
30048;SDS011;16879;50.852;15.602;2024-02-04T04:54:47;0.60;;;0.60;;
30048;SDS011;16879;50.852;15.602;2024-02-04T04:57:13;2.10;;;1.17;;
30048;SDS011;16879;50.852;15.602;2024-02-04T04:59:39;1.05;;;1.00;;
30048;SDS011;16879;50.852;15.602;2024-02-04T05:02:05;1.00;;;1.00;;
30048;SDS011;16879;50.852;15.602;2024-02-04T05:04:31;1.10;;;1.00;;
30048;SDS011;16879;50.852;15.602;2024-02-04T05:06:57;0.85;;;0.68;;
30048;SDS011;16879;50.852;15.602;2024-02-04T05:09:23;1.92;;;0.77;;
30048;SDS011;16879;50.852;15.602;2024-02-04T05:11:49;0.73;;;0.73;;
30048;SDS011;16879;50.852;15.602;2024-02-04T05:14:15;0.90;;;0.90;;
30048;SDS011;16879;50.852;15.602;2024-02-04T05:16:41;1.33;;;1.23;;
30048;SDS011;16879;50.852;15.602;2024-02-04T05:19:09;1.35;;;1.27;;
30048;SDS011;16879;50.852;15.602;2024-02-04T05:21:37;2.58;;;2.33;;
30048;SDS011;16879;50.852;15.602;2024-02-04T05:24:05;2.03;;;1.85;;
30048;SDS011;16879;50.852;15.602;2024-02-04T05:26:31;1.70;;;1.60;;
30048;SDS011;16879;50.852;15.602;2024-02-04T05:28:57;2.42;;;2.22;;
30048;SDS011;16879;50.852;15.602;2024-02-04T05:31:23;2.40;;;2.20;;
30048;SDS011;16879;50.852;15.602;2024-02-04T05:33:51;4.65;;;2.58;;
30048;SDS011;16879;50.852;15.602;2024-02-04T05:36:18;4.22;;;3.08;;
30048;SDS011;16879;50.852;15.602;2024-02-04T05:38:44;2.13;;;2.00;;
30048;SDS011;16879;50.852;15.602;2024-02-04T05:41:11;6.93;;;3.75;;
30048;SDS011;16879;50.852;15.602;2024-02-04T05:43:38;2.63;;;2.42;;
30048;SDS011;16879;50.852;15.602;2024-02-04T05:46:04;3.40;;;2.78;;
30048;SDS011;16879;50.852;15.602;2024-02-04T05:48:30;4.38;;;2.80;;
30048;SDS011;16879;50.852;15.602;2024-02-04T05:50:55;3.08;;;2.80;;
30048;SDS011;16879;50.852;15.602;2024-02-04T05:53:21;4.10;;;3.03;;
30048;SDS011;16879;50.852;15.602;2024-02-04T05:55:47;4.78;;;3.67;;
30048;SDS011;16879;50.852;15.602;2024-02-04T05:58:13;4.32;;;3.92;;
30048;SDS011;16879;50.852;15.602;2024-02-04T06:00:39;4.78;;;4.05;;
30048;SDS011;16879;50.852;15.602;2024-02-04T06:03:06;5.82;;;3.75;;
30048;SDS011;16879;50.852;15.602;2024-02-04T06:05:32;4.03;;;3.65;;
30048;SDS011;16879;50.852;15.602;2024-02-04T06:07:58;6.82;;;4.13;;
30048;SDS011;16879;50.852;15.602;2024-02-04T06:10:23;5.95;;;4.30;;
30048;SDS011;16879;50.852;15.602;2024-02-04T06:12:50;9.02;;;4.05;;
30048;SDS011;16879;50.852;15.602;2024-02-04T06:15:15;3.90;;;3.45;;
30048;SDS011;16879;50.852;15.602;2024-02-04T06:17:42;4.32;;;3.92;;
30048;SDS011;16879;50.852;15.602;2024-02-04T06:20:08;5.10;;;4.22;;
30048;SDS011;16879;50.852;15.602;2024-02-04T06:22:35;7.28;;;4.03;;
30048;SDS011;16879;50.852;15.602;2024-02-04T06:25:02;10.32;;;5.53;;
30048;SDS011;16879;50.852;15.602;2024-02-04T06:27:29;6.18;;;4.90;;
30048;SDS011;16879;50.852;15.602;2024-02-04T06:29:55;6.20;;;4.50;;
30048;SDS011;16879;50.852;15.602;2024-02-04T06:32:21;6.47;;;4.28;;
30048;SDS011;16879;50.852;15.602;2024-02-04T06:34:48;5.70;;;4.50;;
30048;SDS011;16879;50.852;15.602;2024-02-04T06:37:16;6.75;;;4.43;;
30048;SDS011;16879;50.852;15.602;2024-02-04T06:39:42;5.43;;;4.68;;
30048;SDS011;16879;50.852;15.602;2024-02-04T06:42:08;8.05;;;4.80;;
30048;SDS011;16879;50.852;15.602;2024-02-04T06:44:33;6.95;;;4.72;;
30048;SDS011;16879;50.852;15.602;2024-02-04T06:46:59;8.07;;;4.18;;
30048;SDS011;16879;50.852;15.602;2024-02-04T06:49:25;8.18;;;4.75;;
30048;SDS011;16879;50.852;15.602;2024-02-04T06:51:51;9.43;;;4.85;;
30048;SDS011;16879;50.852;15.602;2024-02-04T06:54:22;7.18;;;3.63;;
30048;SDS011;16879;50.852;15.602;2024-02-04T06:56:48;6.00;;;3.50;;
30048;SDS011;16879;50.852;15.602;2024-02-04T06:59:13;9.20;;;4.13;;
30048;SDS011;16879;50.852;15.602;2024-02-04T07:01:40;6.85;;;3.38;;
30048;SDS011;16879;50.852;15.602;2024-02-04T07:04:05;3.97;;;2.92;;
30048;SDS011;16879;50.852;15.602;2024-02-04T07:06:31;4.85;;;3.20;;
30048;SDS011;16879;50.852;15.602;2024-02-04T07:08:57;9.07;;;4.63;;
30048;SDS011;16879;50.852;15.602;2024-02-04T07:11:24;8.48;;;3.72;;
30048;SDS011;16879;50.852;15.602;2024-02-04T07:13:50;7.97;;;4.07;;
30048;SDS011;16879;50.852;15.602;2024-02-04T07:16:23;6.95;;;3.67;;
30048;SDS011;16879;50.852;15.602;2024-02-04T07:18:49;4.15;;;3.08;;
30048;SDS011;16879;50.852;15.602;2024-02-04T07:21:15;5.35;;;3.38;;
30048;SDS011;16879;50.852;15.602;2024-02-04T07:23:41;5.72;;;3.42;;
30048;SDS011;16879;50.852;15.602;2024-02-04T07:26:07;6.28;;;3.70;;
30048;SDS011;16879;50.852;15.602;2024-02-04T07:28:33;6.20;;;3.28;;
30048;SDS011;16879;50.852;15.602;2024-02-04T07:30:59;3.72;;;2.88;;
30048;SDS011;16879;50.852;15.602;2024-02-04T07:33:25;4.03;;;2.70;;
30048;SDS011;16879;50.852;15.602;2024-02-04T07:35:51;6.75;;;5.15;;
30048;SDS011;16879;50.852;15.602;2024-02-04T07:38:17;18.75;;;9.40;;
30048;SDS011;16879;50.852;15.602;2024-02-04T07:40:43;15.88;;;9.82;;
30048;SDS011;16879;50.852;15.602;2024-02-04T07:43:09;7.28;;;4.93;;
30048;SDS011;16879;50.852;15.602;2024-02-04T07:45:35;5.10;;;3.50;;
30048;SDS011;16879;50.852;15.602;2024-02-04T07:48:01;6.88;;;3.63;;
30048;SDS011;16879;50.852;15.602;2024-02-04T07:50:27;10.55;;;5.95;;
30048;SDS011;16879;50.852;15.602;2024-02-04T07:52:53;5.75;;;3.75;;
30048;SDS011;16879;50.852;15.602;2024-02-04T07:55:19;5.25;;;3.70;;
30048;SDS011;16879;50.852;15.602;2024-02-04T07:57:45;5.40;;;3.08;;
30048;SDS011;16879;50.852;15.602;2024-02-04T08:00:11;3.75;;;2.40;;
30048;SDS011;16879;50.852;15.602;2024-02-04T08:02:38;4.68;;;2.65;;
30048;SDS011;16879;50.852;15.602;2024-02-04T08:05:04;4.00;;;2.78;;
30048;SDS011;16879;50.852;15.602;2024-02-04T08:07:31;4.28;;;3.33;;
30048;SDS011;16879;50.852;15.602;2024-02-04T08:09:57;3.13;;;2.83;;
30048;SDS011;16879;50.852;15.602;2024-02-04T08:12:23;2.97;;;2.20;;
30048;SDS011;16879;50.852;15.602;2024-02-04T08:14:50;2.83;;;2.30;;
30048;SDS011;16879;50.852;15.602;2024-02-04T08:17:16;2.83;;;2.30;;
30048;SDS011;16879;50.852;15.602;2024-02-04T08:19:41;2.88;;;2.13;;
30048;SDS011;16879;50.852;15.602;2024-02-04T08:22:07;2.38;;;2.00;;
30048;SDS011;16879;50.852;15.602;2024-02-04T08:24:34;2.90;;;2.10;;
30048;SDS011;16879;50.852;15.602;2024-02-04T08:26:59;2.75;;;1.80;;
30048;SDS011;16879;50.852;15.602;2024-02-04T08:29:25;2.65;;;1.55;;
30048;SDS011;16879;50.852;15.602;2024-02-04T08:31:52;3.03;;;1.50;;
30048;SDS011;16879;50.852;15.602;2024-02-04T08:34:18;1.35;;;1.10;;
30048;SDS011;16879;50.852;15.602;2024-02-04T08:36:49;2.33;;;1.38;;
30048;SDS011;16879;50.852;15.602;2024-02-04T08:39:15;1.40;;;1.30;;
30048;SDS011;16879;50.852;15.602;2024-02-04T08:41:41;1.20;;;1.10;;
30048;SDS011;16879;50.852;15.602;2024-02-04T08:44:07;1.17;;;1.02;;
30048;SDS011;16879;50.852;15.602;2024-02-04T08:46:33;3.28;;;2.47;;
30048;SDS011;16879;50.852;15.602;2024-02-04T08:48:59;3.28;;;1.77;;
30048;SDS011;16879;50.852;15.602;2024-02-04T08:51:25;1.85;;;1.50;;
30048;SDS011;16879;50.852;15.602;2024-02-04T08:53:51;2.42;;;1.70;;
30048;SDS011;16879;50.852;15.602;2024-02-04T08:56:17;1.67;;;1.58;;
30048;SDS011;16879;50.852;15.602;2024-02-04T08:58:45;2.50;;;2.08;;
30048;SDS011;16879;50.852;15.602;2024-02-04T09:01:11;3.08;;;2.17;;
30048;SDS011;16879;50.852;15.602;2024-02-04T09:03:37;4.20;;;2.53;;
30048;SDS011;16879;50.852;15.602;2024-02-04T09:06:03;7.15;;;3.47;;
30048;SDS011;16879;50.852;15.602;2024-02-04T09:08:29;5.97;;;3.30;;
30048;SDS011;16879;50.852;15.602;2024-02-04T09:10:55;3.38;;;2.42;;
30048;SDS011;16879;50.852;15.602;2024-02-04T09:13:22;2.78;;;1.73;;
30048;SDS011;16879;50.852;15.602;2024-02-04T09:15:48;5.90;;;3.92;;
30048;SDS011;16879;50.852;15.602;2024-02-04T09:18:15;8.52;;;4.35;;
30048;SDS011;16879;50.852;15.602;2024-02-04T09:20:41;8.75;;;3.67;;
30048;SDS011;16879;50.852;15.602;2024-02-04T09:23:07;5.35;;;2.40;;
30048;SDS011;16879;50.852;15.602;2024-02-04T09:25:33;3.55;;;2.15;;
30048;SDS011;16879;50.852;15.602;2024-02-04T09:27:59;2.88;;;2.05;;
30048;SDS011;16879;50.852;15.602;2024-02-04T09:30:25;2.50;;;2.10;;
30048;SDS011;16879;50.852;15.602;2024-02-04T09:32:51;2.58;;;1.70;;
30048;SDS011;16879;50.852;15.602;2024-02-04T09:35:17;2.92;;;1.77;;
30048;SDS011;16879;50.852;15.602;2024-02-04T09:37:44;3.50;;;2.22;;
30048;SDS011;16879;50.852;15.602;2024-02-04T09:40:10;6.22;;;2.63;;
30048;SDS011;16879;50.852;15.602;2024-02-04T09:42:38;5.50;;;4.03;;
30048;SDS011;16879;50.852;15.602;2024-02-04T09:45:04;3.75;;;2.70;;
30048;SDS011;16879;50.852;15.602;2024-02-04T09:49:59;6.38;;;3.20;;
30048;SDS011;16879;50.852;15.602;2024-02-04T09:52:28;4.80;;;2.45;;
30048;SDS011;16879;50.852;15.602;2024-02-04T09:55:01;3.78;;;2.08;;
30048;SDS011;16879;50.852;15.602;2024-02-04T09:57:34;1.73;;;1.58;;
30048;SDS011;16879;50.852;15.602;2024-02-04T10:00:04;3.67;;;2.40;;
30048;SDS011;16879;50.852;15.602;2024-02-04T10:02:30;3.08;;;1.88;;
30048;SDS011;16879;50.852;15.602;2024-02-04T10:04:57;2.65;;;1.88;;
30048;SDS011;16879;50.852;15.602;2024-02-04T10:07:23;4.47;;;2.83;;
30048;SDS011;16879;50.852;15.602;2024-02-04T10:09:50;5.10;;;3.05;;
30048;SDS011;16879;50.852;15.602;2024-02-04T10:12:16;5.25;;;3.15;;
30048;SDS011;16879;50.852;15.602;2024-02-04T10:14:42;8.43;;;3.28;;
30048;SDS011;16879;50.852;15.602;2024-02-04T10:17:08;11.95;;;4.82;;
30048;SDS011;16879;50.852;15.602;2024-02-04T10:19:34;6.40;;;2.72;;
30048;SDS011;16879;50.852;15.602;2024-02-04T10:22:00;4.90;;;2.15;;
30048;SDS011;16879;50.852;15.602;2024-02-04T10:24:30;5.63;;;2.35;;
30048;SDS011;16879;50.852;15.602;2024-02-04T10:26:56;1.58;;;1.02;;
30048;SDS011;16879;50.852;15.602;2024-02-04T10:29:23;3.15;;;1.45;;
30048;SDS011;16879;50.852;15.602;2024-02-04T10:31:52;5.18;;;3.33;;
30048;SDS011;16879;50.852;15.602;2024-02-04T10:34:19;7.15;;;2.97;;
30048;SDS011;16879;50.852;15.602;2024-02-04T10:36:46;10.30;;;4.03;;
30048;SDS011;16879;50.852;15.602;2024-02-04T10:39:12;13.32;;;5.18;;
30048;SDS011;16879;50.852;15.602;2024-02-04T10:41:41;12.00;;;4.55;;
30048;SDS011;16879;50.852;15.602;2024-02-04T10:44:10;12.45;;;4.88;;
30048;SDS011;16879;50.852;15.602;2024-02-04T10:46:37;9.70;;;3.78;;
30048;SDS011;16879;50.852;15.602;2024-02-04T10:49:04;2.55;;;2.35;;
30048;SDS011;16879;50.852;15.602;2024-02-04T10:51:35;8.95;;;4.50;;
30048;SDS011;16879;50.852;15.602;2024-02-04T10:54:02;8.65;;;3.72;;
30048;SDS011;16879;50.852;15.602;2024-02-04T10:56:37;3.88;;;2.13;;
30048;SDS011;16879;50.852;15.602;2024-02-04T10:59:03;8.30;;;3.75;;
30048;SDS011;16879;50.852;15.602;2024-02-04T11:01:30;15.27;;;5.68;;
30048;SDS011;16879;50.852;15.602;2024-02-04T11:03:57;6.78;;;2.63;;
30048;SDS011;16879;50.852;15.602;2024-02-04T11:06:24;9.38;;;3.65;;
30048;SDS011;16879;50.852;15.602;2024-02-04T11:08:51;11.80;;;6.00;;
30048;SDS011;16879;50.852;15.602;2024-02-04T11:11:18;10.07;;;5.68;;
30048;SDS011;16879;50.852;15.602;2024-02-04T11:13:47;2.63;;;2.30;;
30048;SDS011;16879;50.852;15.602;2024-02-04T11:21:59;11.55;;;6.05;;
30048;SDS011;16879;50.852;15.602;2024-02-04T11:27:03;6.40;;;3.70;;
30048;SDS011;16879;50.852;15.602;2024-02-04T11:29:29;6.95;;;3.88;;
30048;SDS011;16879;50.852;15.602;2024-02-04T11:31:56;7.20;;;4.03;;
30048;SDS011;16879;50.852;15.602;2024-02-04T11:34:23;5.75;;;3.20;;
30048;SDS011;16879;50.852;15.602;2024-02-04T11:36:49;5.72;;;3.97;;
30048;SDS011;16879;50.852;15.602;2024-02-04T11:39:17;5.22;;;2.70;;
30048;SDS011;16879;50.852;15.602;2024-02-04T11:41:47;2.30;;;1.80;;
30048;SDS011;16879;50.852;15.602;2024-02-04T11:44:23;2.88;;;2.20;;
30048;SDS011;16879;50.852;15.602;2024-02-04T11:46:49;2.05;;;1.77;;
30048;SDS011;16879;50.852;15.602;2024-02-04T11:49:16;3.15;;;2.20;;
30048;SDS011;16879;50.852;15.602;2024-02-04T11:51:45;3.80;;;2.83;;
30048;SDS011;16879;50.852;15.602;2024-02-04T11:54:11;16.50;;;8.48;;
30048;SDS011;16879;50.852;15.602;2024-02-04T11:56:39;13.57;;;8.10;;
30048;SDS011;16879;50.852;15.602;2024-02-04T11:59:06;8.30;;;5.45;;
30048;SDS011;16879;50.852;15.602;2024-02-04T12:01:32;23.90;;;11.68;;
30048;SDS011;16879;50.852;15.602;2024-02-04T12:04:17;23.88;;;11.45;;
30048;SDS011;16879;50.852;15.602;2024-02-04T12:06:44;4.78;;;2.92;;
30048;SDS011;16879;50.852;15.602;2024-02-04T12:09:10;9.35;;;5.85;;
30048;SDS011;16879;50.852;15.602;2024-02-04T12:11:36;7.53;;;4.30;;
30048;SDS011;16879;50.852;15.602;2024-02-04T12:14:06;28.33;;;17.10;;
30048;SDS011;16879;50.852;15.602;2024-02-04T12:16:32;20.92;;;13.13;;
30048;SDS011;16879;50.852;15.602;2024-02-04T12:19:04;17.38;;;9.50;;
30048;SDS011;16879;50.852;15.602;2024-02-04T12:21:31;14.90;;;9.00;;
30048;SDS011;16879;50.852;15.602;2024-02-04T12:23:57;13.65;;;9.60;;
30048;SDS011;16879;50.852;15.602;2024-02-04T12:26:24;9.82;;;6.32;;
30048;SDS011;16879;50.852;15.602;2024-02-04T12:28:51;6.22;;;4.03;;
30048;SDS011;16879;50.852;15.602;2024-02-04T12:31:18;9.90;;;7.00;;
30048;SDS011;16879;50.852;15.602;2024-02-04T12:33:54;11.32;;;7.65;;
30048;SDS011;16879;50.852;15.602;2024-02-04T12:36:28;7.90;;;4.10;;
30048;SDS011;16879;50.852;15.602;2024-02-04T12:38:55;6.38;;;4.10;;
30048;SDS011;16879;50.852;15.602;2024-02-04T12:41:22;5.97;;;4.45;;
30048;SDS011;16879;50.852;15.602;2024-02-04T12:43:52;6.25;;;3.95;;
30048;SDS011;16879;50.852;15.602;2024-02-04T12:46:19;8.55;;;4.97;;
30048;SDS011;16879;50.852;15.602;2024-02-04T12:48:50;8.75;;;4.10;;
30048;SDS011;16879;50.852;15.602;2024-02-04T12:51:23;8.00;;;3.95;;
30048;SDS011;16879;50.852;15.602;2024-02-04T12:53:49;13.00;;;6.55;;
30048;SDS011;16879;50.852;15.602;2024-02-04T12:56:15;11.38;;;6.55;;
30048;SDS011;16879;50.852;15.602;2024-02-04T12:58:42;7.38;;;4.00;;
30048;SDS011;16879;50.852;15.602;2024-02-04T13:01:08;7.97;;;4.70;;
30048;SDS011;16879;50.852;15.602;2024-02-04T13:03:34;4.45;;;3.70;;
30048;SDS011;16879;50.852;15.602;2024-02-04T13:06:00;5.72;;;3.42;;
30048;SDS011;16879;50.852;15.602;2024-02-04T13:08:27;6.75;;;3.58;;
30048;SDS011;16879;50.852;15.602;2024-02-04T13:10:53;6.30;;;4.07;;
30048;SDS011;16879;50.852;15.602;2024-02-04T13:13:21;10.63;;;5.63;;
30048;SDS011;16879;50.852;15.602;2024-02-04T13:15:47;18.15;;;8.23;;
30048;SDS011;16879;50.852;15.602;2024-02-04T13:18:13;14.90;;;6.38;;
30048;SDS011;16879;50.852;15.602;2024-02-04T13:20:42;9.80;;;4.60;;
30048;SDS011;16879;50.852;15.602;2024-02-04T13:23:08;16.83;;;7.10;;
30048;SDS011;16879;50.852;15.602;2024-02-04T13:25:34;9.63;;;5.03;;
30048;SDS011;16879;50.852;15.602;2024-02-04T13:28:00;21.63;;;10.18;;
30048;SDS011;16879;50.852;15.602;2024-02-04T13:30:27;7.65;;;4.95;;
30048;SDS011;16879;50.852;15.602;2024-02-04T13:32:54;11.57;;;6.60;;
30048;SDS011;16879;50.852;15.602;2024-02-04T13:35:22;11.93;;;6.40;;
30048;SDS011;16879;50.852;15.602;2024-02-04T13:37:49;9.85;;;6.63;;
30048;SDS011;16879;50.852;15.602;2024-02-04T13:40:19;11.23;;;6.22;;
30048;SDS011;16879;50.852;15.602;2024-02-04T13:42:46;9.32;;;4.75;;
30048;SDS011;16879;50.852;15.602;2024-02-04T13:45:12;7.95;;;5.15;;
30048;SDS011;16879;50.852;15.602;2024-02-04T13:47:41;6.55;;;3.80;;
30048;SDS011;16879;50.852;15.602;2024-02-04T13:50:07;8.05;;;4.60;;
30048;SDS011;16879;50.852;15.602;2024-02-04T13:52:34;7.90;;;4.82;;
30048;SDS011;16879;50.852;15.602;2024-02-04T13:55:01;9.80;;;5.70;;
30048;SDS011;16879;50.852;15.602;2024-02-04T13:57:27;11.68;;;5.70;;
30048;SDS011;16879;50.852;15.602;2024-02-04T13:59:53;13.18;;;5.95;;
30048;SDS011;16879;50.852;15.602;2024-02-04T14:02:19;11.90;;;6.70;;
30048;SDS011;16879;50.852;15.602;2024-02-04T14:04:45;11.73;;;8.20;;
30048;SDS011;16879;50.852;15.602;2024-02-04T14:07:11;16.15;;;8.85;;
30048;SDS011;16879;50.852;15.602;2024-02-04T14:09:38;13.70;;;7.80;;
30048;SDS011;16879;50.852;15.602;2024-02-04T14:12:04;6.32;;;3.95;;
30048;SDS011;16879;50.852;15.602;2024-02-04T14:14:30;5.97;;;4.57;;
30048;SDS011;16879;50.852;15.602;2024-02-04T14:16:56;6.00;;;4.32;;
30048;SDS011;16879;50.852;15.602;2024-02-04T14:19:22;11.38;;;5.53;;
30048;SDS011;16879;50.852;15.602;2024-02-04T14:21:48;6.78;;;3.78;;
30048;SDS011;16879;50.852;15.602;2024-02-04T14:24:14;5.40;;;2.75;;
30048;SDS011;16879;50.852;15.602;2024-02-04T14:26:39;3.80;;;2.50;;
30048;SDS011;16879;50.852;15.602;2024-02-04T14:29:06;5.95;;;3.58;;
30048;SDS011;16879;50.852;15.602;2024-02-04T14:31:32;10.82;;;5.63;;
30048;SDS011;16879;50.852;15.602;2024-02-04T14:33:58;6.97;;;4.18;;
30048;SDS011;16879;50.852;15.602;2024-02-04T14:36:24;8.60;;;5.10;;
30048;SDS011;16879;50.852;15.602;2024-02-04T14:38:52;5.90;;;3.40;;
30048;SDS011;16879;50.852;15.602;2024-02-04T14:41:18;5.85;;;3.28;;
30048;SDS011;16879;50.852;15.602;2024-02-04T14:43:44;2.53;;;2.08;;